createdAt,value
2022-10-30T00:01:13.038Z,10.30
2022-10-30T00:03:39.576Z,12.10
2022-10-30T00:06:06.508Z,10.83
2022-10-30T00:08:33.605Z,16.77
2022-10-30T00:11:13.749Z,19.50
2022-10-30T00:13:42.478Z,14.03
2022-10-30T00:16:09.803Z,14.37
2022-10-30T00:18:38.372Z,12.73
2022-10-30T00:21:09.684Z,16.63
2022-10-30T00:23:36.153Z,15.03
2022-10-30T00:26:08.075Z,10.37
2022-10-30T00:28:34.876Z,15.97
2022-10-30T00:31:05.281Z,12.90
2022-10-30T00:33:32.145Z,15.17
2022-10-30T00:35:59.505Z,16.50
2022-10-30T00:38:26.207Z,16.53
2022-10-30T00:40:52.719Z,14.53
2022-10-30T00:43:35.213Z,13.90
2022-10-30T00:46:16.531Z,14.90
2022-10-30T00:48:48.213Z,12.03
2022-10-30T00:51:15.080Z,16.30
2022-10-30T00:53:42.982Z,10.97
2022-10-30T00:56:11.525Z,14.87
2022-10-30T00:58:52.839Z,10.33
2022-10-30T01:01:24.421Z,15.20
2022-10-30T01:03:54.582Z,13.97
2022-10-30T01:06:22.861Z,12.13
2022-10-30T01:08:55.291Z,15.07
2022-10-30T01:11:25.812Z,14.10
2022-10-30T01:13:55.957Z,17.23
2022-10-30T01:16:42.879Z,13.33
2022-10-30T01:19:25.262Z,10.73
2022-10-30T01:22:13.578Z,14.10
2022-10-30T01:24:40.054Z,14.80
2022-10-30T01:27:36.328Z,16.33
2022-10-30T01:30:31.104Z,11.43
2022-10-30T01:33:24.344Z,12.40
2022-10-30T01:36:11.225Z,13.23
2022-10-30T01:38:44.352Z,10.33
2022-10-30T01:41:10.878Z,14.20
2022-10-30T01:43:38.263Z,13.93
2022-10-30T01:46:17.028Z,15.70
2022-10-30T01:49:03.311Z,13.17
2022-10-30T01:52:13.644Z,14.87
2022-10-30T01:54:53.548Z,12.30
2022-10-30T01:57:31.878Z,11.33
2022-10-30T02:00:04.165Z,16.57
2022-10-30T02:02:39.721Z,16.37
2022-10-30T02:05:09.851Z,13.07
2022-10-30T02:07:36.765Z,9.63
2022-10-30T02:10:05.489Z,15.90
2022-10-30T02:12:32.077Z,16.33
2022-10-30T02:15:00.709Z,11.97
2022-10-30T02:17:28.321Z,18.80
2022-10-30T02:19:55.111Z,12.17
2022-10-30T02:22:24.764Z,15.77
2022-10-30T02:24:52.692Z,13.07
2022-10-30T02:27:23.072Z,10.73
2022-10-30T02:29:49.820Z,11.40
2022-10-30T02:32:16.545Z,9.43
2022-10-30T02:34:44.089Z,17.00
2022-10-30T02:37:10.796Z,11.57
2022-10-30T02:39:38.524Z,14.10
2022-10-30T02:42:05.718Z,12.53
2022-10-30T02:44:32.224Z,8.97
2022-10-30T02:46:58.687Z,12.50
2022-10-30T02:49:25.173Z,11.77
2022-10-30T02:51:51.966Z,10.23
2022-10-30T02:54:18.498Z,12.83
2022-10-30T02:56:45.584Z,13.43
2022-10-30T02:59:12.185Z,12.50
2022-10-30T03:01:38.886Z,10.40
2022-10-30T03:04:05.522Z,11.50
2022-10-30T03:06:32.123Z,13.53
2022-10-30T03:08:58.908Z,10.63
2022-10-30T03:11:26.034Z,11.03
2022-10-30T03:13:54.583Z,11.23
2022-10-30T03:16:26.670Z,9.13
2022-10-30T03:18:55.255Z,12.83
2022-10-30T03:21:25.397Z,10.60
2022-10-30T03:23:52.456Z,10.90
2022-10-30T03:26:20.272Z,12.53
2022-10-30T03:28:50.704Z,13.23
2022-10-30T03:31:19.177Z,13.13
2022-10-30T03:33:48.543Z,12.80
2022-10-30T03:36:15.711Z,13.67
2022-10-30T03:38:43.428Z,14.87
2022-10-30T03:41:13.368Z,13.47
2022-10-30T03:43:39.847Z,11.47
2022-10-30T03:46:06.420Z,11.97
2022-10-30T03:48:33.664Z,13.00
2022-10-30T03:51:00.223Z,11.67
2022-10-30T03:53:29.088Z,8.90
2022-10-30T03:56:01.004Z,10.90
2022-10-30T03:58:36.347Z,19.03
2022-10-30T04:01:05.915Z,12.80
2022-10-30T04:03:35.849Z,17.33
2022-10-30T04:06:03.024Z,12.73
2022-10-30T04:08:29.474Z,14.90
2022-10-30T04:10:57.047Z,13.03
2022-10-30T04:13:23.613Z,13.07
2022-10-30T04:15:57.239Z,15.27
2022-10-30T04:18:26.113Z,14.50
2022-10-30T04:20:53.664Z,14.60
2022-10-30T04:23:21.474Z,11.73
2022-10-30T04:25:48.349Z,14.07
2022-10-30T04:28:15.420Z,12.97
2022-10-30T04:30:42.541Z,12.47
2022-10-30T04:33:12.900Z,13.90
2022-10-30T04:35:42.520Z,8.77
2022-10-30T04:38:16.053Z,10.87
2022-10-30T04:40:44.447Z,13.60
2022-10-30T04:43:13.811Z,14.40
2022-10-30T04:45:41.940Z,12.37
2022-10-30T04:48:12.570Z,10.60
2022-10-30T04:50:39.517Z,12.80
2022-10-30T04:53:10.241Z,12.50
2022-10-30T04:55:36.688Z,13.40
2022-10-30T04:58:04.367Z,10.23
2022-10-30T05:00:35.372Z,16.67
2022-10-30T05:03:19.418Z,14.13
2022-10-30T05:05:47.933Z,13.30
2022-10-30T05:08:14.565Z,10.07
2022-10-30T05:10:41.185Z,11.00
2022-10-30T05:13:11.608Z,9.43
2022-10-30T05:15:38.363Z,8.87
2022-10-30T05:18:04.923Z,11.63
2022-10-30T05:20:31.550Z,12.93
2022-10-30T05:22:59.764Z,10.67
2022-10-30T05:25:27.941Z,9.87
2022-10-30T05:27:59.764Z,8.37
2022-10-30T05:30:30.731Z,12.30
2022-10-30T05:33:03.468Z,12.03
2022-10-30T05:35:32.656Z,10.37
2022-10-30T05:38:00.559Z,13.10
2022-10-30T05:40:27.737Z,14.83
2022-10-30T05:42:54.424Z,10.70
2022-10-30T05:45:22.252Z,12.73
2022-10-30T05:48:04.282Z,11.70
2022-10-30T05:50:37.353Z,12.60
2022-10-30T05:53:33.044Z,10.13
2022-10-30T05:56:00.267Z,7.90
2022-10-30T05:58:31.342Z,12.67
2022-10-30T06:01:05.441Z,9.50
2022-10-30T06:03:39.841Z,8.07
2022-10-30T06:06:07.000Z,10.20
2022-10-30T06:08:33.525Z,9.87
2022-10-30T06:11:05.640Z,13.33
2022-10-30T06:13:38.920Z,11.43
2022-10-30T06:16:16.303Z,14.17
2022-10-30T06:19:18.901Z,13.97
2022-10-30T06:21:49.235Z,13.83
2022-10-30T06:24:35.951Z,12.73
2022-10-30T06:27:22.371Z,14.10
2022-10-30T06:29:49.190Z,13.53
2022-10-30T06:32:16.001Z,10.87
2022-10-30T06:34:44.832Z,7.67
2022-10-30T06:37:13.039Z,11.63
2022-10-30T06:39:39.964Z,8.27
2022-10-30T06:42:29.306Z,10.07
2022-10-30T06:45:08.319Z,12.20
2022-10-30T06:47:36.166Z,12.60
2022-10-30T06:50:04.351Z,14.43
2022-10-30T06:52:30.989Z,14.03
2022-10-30T06:54:57.611Z,12.43
2022-10-30T06:57:41.328Z,13.13
2022-10-30T07:00:20.917Z,9.83
2022-10-30T07:03:13.951Z,14.87
2022-10-30T07:05:40.724Z,11.00
2022-10-30T07:08:07.280Z,12.27
2022-10-30T07:10:34.300Z,16.40
2022-10-30T07:13:23.866Z,16.73
2022-10-30T07:16:03.114Z,10.83
2022-10-30T07:18:36.335Z,17.80
2022-10-30T07:21:02.947Z,13.63
2022-10-30T07:23:30.800Z,16.07
2022-10-30T07:26:08.569Z,16.43
2022-10-30T07:28:44.043Z,15.30
2022-10-30T07:31:34.780Z,15.90
2022-10-30T07:34:16.746Z,14.23
2022-10-30T07:37:03.177Z,15.80
2022-10-30T07:39:39.462Z,11.47
2022-10-30T07:42:21.671Z,13.67
2022-10-30T07:45:07.367Z,15.93
2022-10-30T07:47:52.678Z,11.90
2022-10-30T07:50:29.589Z,11.03
2022-10-30T07:52:56.229Z,17.43
2022-10-30T07:55:26.415Z,12.40
2022-10-30T07:57:52.918Z,14.80
2022-10-30T08:00:57.796Z,16.97
2022-10-30T08:03:30.813Z,11.00
2022-10-30T08:06:04.931Z,13.83
2022-10-30T08:08:37.837Z,13.93
2022-10-30T08:11:23.735Z,15.43
2022-10-30T08:13:50.864Z,12.43
2022-10-30T08:16:18.456Z,10.17
2022-10-30T08:18:44.959Z,11.90
2022-10-30T08:21:11.678Z,9.37
2022-10-30T08:23:47.531Z,11.77
2022-10-30T08:26:16.952Z,12.47
2022-10-30T08:28:43.486Z,11.57
2022-10-30T08:31:11.312Z,14.53
2022-10-30T08:33:56.250Z,11.07
2022-10-30T08:36:49.425Z,14.07
2022-10-30T08:39:17.416Z,11.27
2022-10-30T08:41:59.043Z,11.23
2022-10-30T08:44:28.179Z,13.17
2022-10-30T08:47:27.101Z,8.87
2022-10-30T08:49:54.072Z,9.63
2022-10-30T08:52:24.992Z,12.90
2022-10-30T08:54:55.165Z,13.53
2022-10-30T08:57:23.916Z,10.60
2022-10-30T08:59:51.507Z,14.83
2022-10-30T09:02:50.289Z,10.37
2022-10-30T09:05:32.104Z,14.70
2022-10-30T09:08:24.787Z,14.57
2022-10-30T09:11:26.525Z,13.60
2022-10-30T09:13:53.345Z,16.80
2022-10-30T09:16:19.957Z,14.63
2022-10-30T09:18:46.396Z,15.77
2022-10-30T09:21:12.919Z,10.23
2022-10-30T09:23:44.377Z,15.93
2022-10-30T09:26:29.719Z,14.60
2022-10-30T09:29:16.512Z,12.80
2022-10-30T09:32:05.058Z,14.97
2022-10-30T09:34:32.591Z,17.80
2022-10-30T09:37:06.141Z,15.37
2022-10-30T09:39:36.394Z,11.47
2022-10-30T09:42:25.159Z,15.47
2022-10-30T09:45:30.157Z,14.27
2022-10-30T09:48:14.440Z,17.13
2022-10-30T09:51:35.345Z,13.73
2022-10-30T09:54:12.040Z,16.20
2022-10-30T09:57:01.077Z,19.07
2022-10-30T09:59:45.561Z,15.20
2022-10-30T10:02:28.238Z,12.40
2022-10-30T10:05:06.049Z,12.40
2022-10-30T10:08:03.870Z,15.00
2022-10-30T10:10:57.730Z,9.73
2022-10-30T10:13:57.322Z,13.37
2022-10-30T10:16:29.088Z,15.27
2022-10-30T10:19:08.971Z,10.90
2022-10-30T10:21:58.254Z,14.07
2022-10-30T10:24:29.364Z,17.57
2022-10-30T10:27:18.238Z,15.07
2022-10-30T10:30:06.617Z,15.70
2022-10-30T10:33:11.331Z,13.20
2022-10-30T10:35:53.358Z,10.60
2022-10-30T10:38:39.243Z,16.30
2022-10-30T10:41:21.412Z,12.37
2022-10-30T10:44:12.796Z,13.93
2022-10-30T10:46:42.200Z,14.63
2022-10-30T10:49:35.866Z,12.93
2022-10-30T10:52:13.263Z,11.13
2022-10-30T10:54:44.984Z,11.80
2022-10-30T10:57:25.888Z,11.63
2022-10-30T11:00:00.966Z,15.23
2022-10-30T11:02:33.503Z,12.80
2022-10-30T11:05:05.973Z,13.23
2022-10-30T11:07:37.080Z,16.63
2022-10-30T11:10:18.301Z,13.53
2022-10-30T11:12:45.456Z,14.80
2022-10-30T11:15:33.132Z,13.93
2022-10-30T11:21:16.493Z,13.43
2022-10-30T11:23:48.711Z,12.30
2022-10-30T11:26:18.232Z,11.20
2022-10-30T11:28:55.138Z,13.70
2022-10-30T11:31:37.902Z,12.77
2022-10-30T11:34:19.885Z,12.47
2022-10-30T11:36:48.679Z,12.90
2022-10-30T11:39:22.531Z,12.60
2022-10-30T11:42:01.835Z,13.30
2022-10-30T11:44:38.467Z,13.27
2022-10-30T11:47:07.864Z,13.37
2022-10-30T11:49:52.577Z,12.33
2022-10-30T11:52:26.417Z,12.03
2022-10-30T11:54:57.305Z,14.27
2022-10-30T11:57:42.380Z,12.73
2022-10-30T12:00:21.555Z,9.80
2022-10-30T12:02:51.522Z,11.17
2022-10-30T12:05:27.170Z,13.10
2022-10-30T12:07:55.337Z,15.33
2022-10-30T12:10:26.414Z,14.60
2022-10-30T12:12:53.329Z,10.30
2022-10-30T12:15:24.339Z,9.27
2022-10-30T12:18:03.057Z,12.10
2022-10-30T12:20:30.040Z,13.50
2022-10-30T12:22:57.860Z,12.37
2022-10-30T12:25:32.035Z,14.40
2022-10-30T12:28:07.758Z,12.63
2022-10-30T12:30:47.904Z,10.87
2022-10-30T12:33:25.020Z,16.10
2022-10-30T12:35:58.965Z,10.57
2022-10-30T12:38:38.088Z,8.93
2022-10-30T12:41:20.569Z,11.87
2022-10-30T12:43:58.283Z,14.27
2022-10-30T12:46:40.349Z,12.17
2022-10-30T12:49:31.849Z,14.47
2022-10-30T12:52:07.486Z,11.10
2022-10-30T12:54:42.472Z,13.40
2022-10-30T12:57:12.133Z,10.53
2022-10-30T13:00:14.651Z,10.70
2022-10-30T13:03:19.985Z,12.97
2022-10-30T13:06:10.622Z,10.20
2022-10-30T13:08:46.028Z,8.17
2022-10-30T13:11:44.306Z,10.37
2022-10-30T13:14:18.479Z,11.47
2022-10-30T13:16:45.043Z,10.43
2022-10-30T13:19:13.473Z,8.83
2022-10-30T13:21:46.047Z,16.83
2022-10-30T13:24:19.075Z,11.30
2022-10-30T13:27:07.636Z,11.93
2022-10-30T13:29:40.245Z,12.00
2022-10-30T13:32:17.468Z,15.70
2022-10-30T13:35:15.703Z,13.50
2022-10-30T13:37:47.401Z,12.37
2022-10-30T13:40:38.358Z,12.20
2022-10-30T13:43:28.652Z,13.20
2022-10-30T13:46:02.003Z,12.20
2022-10-30T13:49:09.457Z,10.50
2022-10-30T13:51:45.229Z,10.83
2022-10-30T13:54:22.446Z,9.03
2022-10-30T13:56:50.532Z,9.97
2022-10-30T13:59:44.341Z,10.97
2022-10-30T14:02:40.764Z,11.57
2022-10-30T14:05:26.155Z,9.97
2022-10-30T14:08:06.375Z,11.10
2022-10-30T14:10:46.104Z,11.83
2022-10-30T14:13:26.850Z,9.27
2022-10-30T14:16:02.528Z,12.67
2022-10-30T14:18:44.498Z,12.93
2022-10-30T14:21:34.938Z,12.27
2022-10-30T14:24:12.156Z,12.67
2022-10-30T14:26:45.267Z,10.27
2022-10-30T14:29:32.955Z,12.80
2022-10-30T14:32:00.521Z,16.23
2022-10-30T14:34:51.564Z,12.23
2022-10-30T14:37:24.120Z,10.80
2022-10-30T14:39:51.701Z,13.07
2022-10-30T14:42:44.212Z,11.27
2022-10-30T14:45:27.906Z,9.77
2022-10-30T14:48:13.193Z,13.07
2022-10-30T14:50:58.429Z,13.30
2022-10-30T14:53:46.785Z,11.90
2022-10-30T14:59:13.824Z,12.63
2022-10-30T15:01:50.403Z,11.17
2022-10-30T15:04:40.514Z,10.27
2022-10-30T15:07:24.431Z,9.63
2022-10-30T15:09:51.449Z,10.17
2022-10-30T15:12:48.750Z,11.80
2022-10-30T15:15:18.820Z,12.13
2022-10-30T15:17:48.250Z,8.43
2022-10-30T15:20:36.923Z,7.40
2022-10-30T15:23:18.972Z,6.93
2022-10-30T15:25:54.837Z,7.37
2022-10-30T15:31:00.296Z,11.67
2022-10-30T15:33:32.909Z,11.23
2022-10-30T15:35:59.605Z,10.67
2022-10-30T15:38:26.064Z,9.17
2022-10-30T15:40:59.083Z,7.87
2022-10-30T15:43:35.368Z,8.17
2022-10-30T15:46:09.496Z,8.77
2022-10-30T15:48:39.226Z,9.17
2022-10-30T15:51:23.149Z,10.43
2022-10-30T15:54:00.842Z,10.13
2022-10-30T15:56:41.134Z,7.67
2022-10-30T15:59:36.735Z,8.73
2022-10-30T16:02:03.765Z,7.57
2022-10-30T16:04:36.589Z,9.77
2022-10-30T16:07:17.813Z,10.63
2022-10-30T16:09:59.291Z,9.63
2022-10-30T16:12:27.868Z,11.97
2022-10-30T16:14:56.274Z,11.73
2022-10-30T16:17:25.457Z,10.43
2022-10-30T16:19:56.614Z,12.83
2022-10-30T16:22:33.901Z,13.60
2022-10-30T16:25:07.306Z,12.87
2022-10-30T16:27:33.851Z,11.77
2022-10-30T16:30:01.016Z,13.03
2022-10-30T16:32:31.161Z,14.33
2022-10-30T16:35:00.295Z,12.90
2022-10-30T16:37:34.007Z,18.23
2022-10-30T16:40:06.560Z,37.23
2022-10-30T16:42:33.750Z,39.17
2022-10-30T16:45:33.780Z,41.53
2022-10-30T16:48:09.244Z,36.00
2022-10-30T16:50:38.419Z,39.87
2022-10-30T16:53:19.303Z,33.80
2022-10-30T16:55:46.197Z,29.77
2022-10-30T16:58:14.646Z,27.87
2022-10-30T17:00:47.927Z,20.80
2022-10-30T17:03:14.550Z,25.80
2022-10-30T17:05:44.641Z,22.17
2022-10-30T17:08:17.015Z,16.87
2022-10-30T17:10:59.540Z,18.37
2022-10-30T17:13:36.856Z,15.30
2022-10-30T17:16:24.796Z,17.73
2022-10-30T17:18:54.367Z,18.17
2022-10-30T17:21:35.360Z,16.80
2022-10-30T17:24:03.238Z,22.13
2022-10-30T17:26:31.953Z,36.20
2022-10-30T17:28:58.518Z,59.17
2022-10-30T17:31:37.024Z,41.17
2022-10-30T17:34:03.544Z,35.53
2022-10-30T17:36:30.084Z,28.73
2022-10-30T17:38:56.557Z,25.63
2022-10-30T17:41:23.142Z,24.67
2022-10-30T17:43:53.075Z,25.97
2022-10-30T17:46:20.843Z,23.27
2022-10-30T17:48:47.717Z,21.90
2022-10-30T17:51:15.322Z,27.17
2022-10-30T17:53:42.247Z,22.80
2022-10-30T17:56:17.674Z,22.77
2022-10-30T17:58:44.151Z,19.37
2022-10-30T18:01:25.731Z,24.00
2022-10-30T18:03:57.503Z,14.90
2022-10-30T18:06:27.246Z,16.13
2022-10-30T18:08:54.519Z,19.33
2022-10-30T18:11:23.727Z,15.73
2022-10-30T18:13:51.925Z,18.70
2022-10-30T18:16:19.365Z,16.33
2022-10-30T18:18:46.060Z,15.97
2022-10-30T18:21:17.941Z,14.20
2022-10-30T18:23:52.451Z,16.40
2022-10-30T18:26:25.011Z,18.47
2022-10-30T18:28:51.958Z,12.10
2022-10-30T18:31:21.173Z,10.97
2022-10-30T18:33:48.525Z,13.70
2022-10-30T18:36:20.513Z,14.93
2022-10-30T18:38:47.344Z,14.57
2022-10-30T18:41:20.742Z,12.33
2022-10-30T18:43:47.630Z,16.73
2022-10-30T18:46:15.616Z,18.13
2022-10-30T18:48:42.302Z,13.70
2022-10-30T18:51:17.943Z,19.70
2022-10-30T18:53:54.305Z,23.43
2022-10-30T18:56:28.816Z,23.60
2022-10-30T18:59:01.556Z,23.77
2022-10-30T19:01:30.837Z,18.00
2022-10-30T19:04:00.699Z,20.47
2022-10-30T19:06:27.205Z,19.70
2022-10-30T19:08:54.117Z,17.97
2022-10-30T19:11:24.564Z,17.53
2022-10-30T19:13:53.438Z,19.97
2022-10-30T19:16:21.561Z,20.20
2022-10-30T19:18:49.116Z,19.50
2022-10-30T19:21:21.503Z,22.63
2022-10-30T19:23:49.368Z,19.00
2022-10-30T19:26:17.545Z,17.87
2022-10-30T19:28:45.522Z,13.57
2022-10-30T19:31:17.717Z,15.93
2022-10-30T19:33:44.940Z,16.97
2022-10-30T19:36:28.257Z,17.33
2022-10-30T19:38:55.492Z,13.13
2022-10-30T19:41:22.877Z,15.03
2022-10-30T19:43:49.513Z,17.30
2022-10-30T19:46:16.288Z,14.87
2022-10-30T19:48:59.289Z,16.50
2022-10-30T19:51:28.873Z,14.17
2022-10-30T19:53:56.163Z,15.53
2022-10-30T19:56:23.514Z,15.60
2022-10-30T19:58:50.337Z,15.73
2022-10-30T20:01:17.325Z,13.57
2022-10-30T20:03:43.898Z,13.23
2022-10-30T20:06:13.708Z,16.60
2022-10-30T20:08:40.233Z,14.77
2022-10-30T20:11:07.215Z,16.30
2022-10-30T20:13:34.071Z,15.00
2022-10-30T20:16:04.631Z,15.90
2022-10-30T20:18:34.119Z,18.43
2022-10-30T20:21:03.023Z,17.80
2022-10-30T20:23:29.542Z,15.40
2022-10-30T20:26:06.393Z,17.97
2022-10-30T20:28:37.123Z,19.93
2022-10-30T20:31:04.761Z,14.73
2022-10-30T20:33:31.392Z,19.00
2022-10-30T20:35:57.909Z,17.97
2022-10-30T20:38:29.353Z,16.27
2022-10-30T20:40:57.419Z,13.97
2022-10-30T20:43:37.893Z,13.27
2022-10-30T20:46:07.347Z,14.80
2022-10-30T20:48:33.808Z,15.87
2022-10-30T20:51:04.192Z,14.27
2022-10-30T20:53:30.651Z,19.67
2022-10-30T20:55:57.507Z,20.73
2022-10-30T20:58:24.161Z,15.27
2022-10-30T21:00:51.277Z,16.53
2022-10-30T21:03:18.158Z,14.33
2022-10-30T21:05:46.036Z,18.40
2022-10-30T21:08:14.060Z,15.50
2022-10-30T21:10:41.543Z,13.17
2022-10-30T21:13:09.550Z,19.17
2022-10-30T21:15:42.949Z,18.60
2022-10-30T21:18:11.251Z,13.10
2022-10-30T21:20:37.819Z,13.83
2022-10-30T21:23:05.293Z,16.43
2022-10-30T21:25:32.457Z,14.60
2022-10-30T21:27:59.314Z,14.43
2022-10-30T21:30:26.132Z,17.50
2022-10-30T21:32:52.623Z,16.97
2022-10-30T21:35:19.600Z,14.50
2022-10-30T21:37:46.107Z,18.17
2022-10-30T21:40:13.225Z,14.80
2022-10-30T21:42:39.717Z,16.33
2022-10-30T21:45:07.068Z,13.87
2022-10-30T21:47:34.308Z,17.33
2022-10-30T21:50:00.791Z,13.83
2022-10-30T21:52:27.194Z,18.33
2022-10-30T21:54:53.751Z,20.27
2022-10-30T21:57:20.547Z,17.00
2022-10-30T21:59:47.045Z,18.50
2022-10-30T22:02:15.222Z,15.77
2022-10-30T22:04:42.181Z,12.83
2022-10-30T22:07:08.727Z,21.23
2022-10-30T22:09:35.292Z,17.87
2022-10-30T22:12:03.515Z,14.37
2022-10-30T22:14:30.060Z,17.90
2022-10-30T22:16:56.716Z,15.53
2022-10-30T22:19:23.297Z,18.17
2022-10-30T22:21:49.839Z,16.83
2022-10-30T22:24:17.251Z,13.53
2022-10-30T22:26:44.178Z,16.00
2022-10-30T22:29:11.570Z,20.20
2022-10-30T22:31:38.176Z,19.73
2022-10-30T22:34:04.843Z,17.90
2022-10-30T22:36:32.937Z,16.07
2022-10-30T22:39:05.822Z,14.23
2022-10-30T22:41:37.356Z,19.30
2022-10-30T22:44:07.428Z,15.70
2022-10-30T22:46:34.407Z,24.37
2022-10-30T22:49:00.883Z,23.37
2022-10-30T22:51:28.157Z,16.00
2022-10-30T22:53:59.797Z,16.57
2022-10-30T22:56:28.782Z,15.80
2022-10-30T22:58:56.151Z,14.97
2022-10-30T23:01:27.212Z,21.03
2022-10-30T23:03:59.021Z,22.87
2022-10-30T23:06:26.570Z,22.20
2022-10-30T23:08:55.483Z,17.13
2022-10-30T23:11:23.222Z,23.17
2022-10-30T23:13:50.631Z,19.00
2022-10-30T23:16:20.663Z,17.13
2022-10-30T23:18:47.914Z,19.30
2022-10-30T23:21:20.800Z,16.77
2022-10-30T23:23:47.561Z,22.53
2022-10-30T23:26:17.963Z,14.23
2022-10-30T23:28:45.981Z,18.37
2022-10-30T23:31:19.795Z,18.23
2022-10-30T23:33:48.647Z,19.33
2022-10-30T23:36:16.113Z,25.40
2022-10-30T23:38:42.841Z,17.87
2022-10-30T23:41:09.597Z,16.10
2022-10-30T23:43:36.058Z,16.83
2022-10-30T23:46:02.553Z,15.37
2022-10-30T23:48:29.100Z,17.00
2022-10-30T23:50:55.733Z,19.73
2022-10-30T23:53:22.289Z,15.77
2022-10-30T23:55:50.910Z,18.33
2022-10-30T23:58:17.660Z,17.77
